Nambucca Heads, Australia
Current Conditions -  °F | °C
As of 7:30 PM on Saturday 20 Dec 2014 (Local Time) from YCFS Reporting Station
Light Rain Light Rain  
Wind Chill: 73°   Ceiling: 3000
Heat Index: 73°   Visibility: 6mi
Dew Point: 64°   Wind: 8mph
Humidity: 73%   Direction: 80°E
Pressure: 30"   Gusts: NA
Location:  30.64°S, 153°E
Report Text: YCFS 200830Z AUTO 08007KT 9999 -RA OVC030 23/18 Q1016
Loading
Personal Weather Stations






























Interactive Weather Map New forecast layout! Learn more

10-Day Weather Forecast

Advertisements
Track Severe Weather on mobile